sensor_id;sensor_type;location;lat;lon;timestamp;pressure;altitude;pressure_sealevel;temperature
18161;BMP280;9205;52.032;4.314;2023-04-15T00:02:15;100784.63;;;11.95
18161;BMP280;9205;52.032;4.314;2023-04-15T00:04:44;100777.84;;;11.96
18161;BMP280;9205;52.032;4.314;2023-04-15T00:07:12;100783.00;;;11.94
18161;BMP280;9205;52.032;4.314;2023-04-15T00:09:40;100784.63;;;11.95
18161;BMP280;9205;52.032;4.314;2023-04-15T00:12:08;100787.19;;;11.95
18161;BMP280;9205;52.032;4.314;2023-04-15T00:14:35;100788.09;;;11.94
18161;BMP280;9205;52.032;4.314;2023-04-15T00:17:03;100784.78;;;11.91
18161;BMP280;9205;52.032;4.314;2023-04-15T00:19:30;100794.16;;;11.89
18161;BMP280;9205;52.032;4.314;2023-04-15T00:21:59;100791.66;;;11.87
18161;BMP280;9205;52.032;4.314;2023-04-15T00:24:26;100790.94;;;11.82
18161;BMP280;9205;52.032;4.314;2023-04-15T00:26:53;100795.09;;;11.86
18161;BMP280;9205;52.032;4.314;2023-04-15T00:29:21;100791.66;;;11.87
18161;BMP280;9205;52.032;4.314;2023-04-15T00:31:48;100797.66;;;11.86
18161;BMP280;9205;52.032;4.314;2023-04-15T00:34:15;100795.91;;;11.87
18161;BMP280;9205;52.032;4.314;2023-04-15T00:36:43;100790.91;;;11.84
18161;BMP280;9205;52.032;4.314;2023-04-15T00:39:12;100791.00;;;11.81
18161;BMP280;9205;52.032;4.314;2023-04-15T00:41:42;100798.53;;;11.84
18161;BMP280;9205;52.032;4.314;2023-04-15T00:44:09;100796.09;;;11.79
18161;BMP280;9205;52.032;4.314;2023-04-15T00:46:38;100800.31;;;11.80
18161;BMP280;9205;52.032;4.314;2023-04-15T00:49:06;100808.75;;;11.82
18161;BMP280;9205;52.032;4.314;2023-04-15T00:51:33;100802.84;;;11.82
18161;BMP280;9205;52.032;4.314;2023-04-15T00:54:05;100798.66;;;11.79
18161;BMP280;9205;52.032;4.314;2023-04-15T00:56:36;100799.63;;;11.75
18161;BMP280;9205;52.032;4.314;2023-04-15T00:59:05;100801.38;;;11.73
18161;BMP280;9205;52.032;4.314;2023-04-15T01:01:34;100800.59;;;11.72
18161;BMP280;9205;52.032;4.314;2023-04-15T01:04:03;100799.75;;;11.71
18161;BMP280;9205;52.032;4.314;2023-04-15T01:06:32;100795.53;;;11.70
18161;BMP280;9205;52.032;4.314;2023-04-15T01:08:59;100798.19;;;11.66
18161;BMP280;9205;52.032;4.314;2023-04-15T01:11:27;100805.06;;;11.62
18161;BMP280;9205;52.032;4.314;2023-04-15T01:13:58;100806.78;;;11.62
18161;BMP280;9205;52.032;4.314;2023-04-15T01:16:25;100802.56;;;11.61
18161;BMP280;9205;52.032;4.314;2023-04-15T01:18:53;100810.31;;;11.56
18161;BMP280;9205;52.032;4.314;2023-04-15T01:21:22;100803.59;;;11.54
18161;BMP280;9205;52.032;4.314;2023-04-15T01:23:52;100806.91;;;11.57
18161;BMP280;9205;52.032;4.314;2023-04-15T01:26:23;100805.16;;;11.59
18161;BMP280;9205;52.032;4.314;2023-04-15T01:28:50;100797.50;;;11.61
18161;BMP280;9205;52.032;4.314;2023-04-15T01:31:18;100806.03;;;11.58
18161;BMP280;9205;52.032;4.314;2023-04-15T01:33:45;100795.97;;;11.54
18161;BMP280;9205;52.032;4.314;2023-04-15T01:36:14;100797.66;;;11.55
18161;BMP280;9205;52.032;4.314;2023-04-15T01:38:41;100808.66;;;11.55
18161;BMP280;9205;52.032;4.314;2023-04-15T01:41:08;100799.44;;;11.50
18161;BMP280;9205;52.032;4.314;2023-04-15T01:43:36;100796.00;;;11.51
18161;BMP280;9205;52.032;4.314;2023-04-15T01:46:04;100796.88;;;11.50
18161;BMP280;9205;52.032;4.314;2023-04-15T01:48:31;100797.91;;;11.43
18161;BMP280;9205;52.032;4.314;2023-04-15T01:50:59;100799.69;;;11.41
18161;BMP280;9205;52.032;4.314;2023-04-15T01:53:26;100800.66;;;11.35
18161;BMP280;9205;52.032;4.314;2023-04-15T01:55:54;100801.59;;;11.33
18161;BMP280;9205;52.032;4.314;2023-04-15T01:58:21;100807.66;;;11.27
18161;BMP280;9205;52.032;4.314;2023-04-15T02:00:50;100811.06;;;11.26
18161;BMP280;9205;52.032;4.314;2023-04-15T02:03:18;100806.88;;;11.24
18161;BMP280;9205;52.032;4.314;2023-04-15T02:05:45;100799.28;;;11.22
18161;BMP280;9205;52.032;4.314;2023-04-15T02:08:12;100810.34;;;11.21
18161;BMP280;9205;52.032;4.314;2023-04-15T02:10:39;100809.56;;;11.18
18161;BMP280;9205;52.032;4.314;2023-04-15T02:13:07;100808.69;;;11.19
18161;BMP280;9205;52.032;4.314;2023-04-15T02:15:34;100810.38;;;11.20
18161;BMP280;9205;52.032;4.314;2023-04-15T02:18:03;100817.28;;;11.15
18161;BMP280;9205;52.032;4.314;2023-04-15T02:20:30;100814.69;;;11.16
18161;BMP280;9205;52.032;4.314;2023-04-15T02:22:57;100818.94;;;11.16
18161;BMP280;9205;52.032;4.314;2023-04-15T02:25:25;100824.03;;;11.16
18161;BMP280;9205;52.032;4.314;2023-04-15T02:27:52;100816.41;;;11.16
18161;BMP280;9205;52.032;4.314;2023-04-15T02:30:20;100824.84;;;11.16
18161;BMP280;9205;52.032;4.314;2023-04-15T02:32:48;100821.59;;;11.11
18161;BMP280;9205;52.032;4.314;2023-04-15T02:35:17;100828.28;;;11.15
18161;BMP280;9205;52.032;4.314;2023-04-15T02:37:44;100829.13;;;11.14
18161;BMP280;9205;52.032;4.314;2023-04-15T02:40:12;100837.81;;;11.06
18161;BMP280;9205;52.032;4.314;2023-04-15T02:42:40;100831.06;;;11.05
18161;BMP280;9205;52.032;4.314;2023-04-15T02:45:11;100829.38;;;11.05
18161;BMP280;9205;52.032;4.314;2023-04-15T02:47:39;100832.03;;;11.01
18161;BMP280;9205;52.032;4.314;2023-04-15T02:50:12;100838.09;;;10.95
18161;BMP280;9205;52.032;4.314;2023-04-15T02:52:42;100832.13;;;10.96
18161;BMP280;9205;52.032;4.314;2023-04-15T02:55:10;100841.44;;;10.96
18161;BMP280;9205;52.032;4.314;2023-04-15T02:57:37;100840.72;;;10.91
18161;BMP280;9205;52.032;4.314;2023-04-15T03:00:09;100854.41;;;10.86
18161;BMP280;9205;52.032;4.314;2023-04-15T03:02:40;100851.09;;;10.82
18161;BMP280;9205;52.032;4.314;2023-04-15T03:05:12;100850.38;;;10.77
18161;BMP280;9205;52.032;4.314;2023-04-15T03:07:46;100857.91;;;10.80
18161;BMP280;9205;52.032;4.314;2023-04-15T03:10:13;100864.94;;;10.68
18161;BMP280;9205;52.032;4.314;2023-04-15T03:12:41;100866.72;;;10.64
18161;BMP280;9205;52.032;4.314;2023-04-15T03:15:12;100875.16;;;10.66
18161;BMP280;9205;52.032;4.314;2023-04-15T03:17:43;100870.94;;;10.65
18161;BMP280;9205;52.032;4.314;2023-04-15T03:20:12;100870.94;;;10.65
18161;BMP280;9205;52.032;4.314;2023-04-15T03:22:39;100879.50;;;10.61
18161;BMP280;9205;52.032;4.314;2023-04-15T03:25:09;100887.03;;;10.66
18161;BMP280;9205;52.032;4.314;2023-04-15T03:27:37;100884.63;;;10.60
18161;BMP280;9205;52.032;4.314;2023-04-15T03:30:07;100894.81;;;10.58
18161;BMP280;9205;52.032;4.314;2023-04-15T03:32:36;100896.53;;;10.56
18161;BMP280;9205;52.032;4.314;2023-04-15T03:35:06;100894.84;;;10.57
18161;BMP280;9205;52.032;4.314;2023-04-15T03:37:34;100899.19;;;10.50
18161;BMP280;9205;52.032;4.314;2023-04-15T03:40:01;100901.88;;;10.44
18161;BMP280;9205;52.032;4.314;2023-04-15T03:42:30;100910.34;;;10.43
18161;BMP280;9205;52.032;4.314;2023-04-15T03:44:57;100900.38;;;10.34
18161;BMP280;9205;52.032;4.314;2023-04-15T03:47:25;100909.63;;;10.37
18161;BMP280;9205;52.032;4.314;2023-04-15T03:49:52;100914.00;;;10.30
18161;BMP280;9205;52.032;4.314;2023-04-15T03:52:19;100915.75;;;10.25
18161;BMP280;9205;52.032;4.314;2023-04-15T03:54:46;100916.75;;;10.18
18161;BMP280;9205;52.032;4.314;2023-04-15T03:57:14;100924.47;;;10.13
18161;BMP280;9205;52.032;4.314;2023-04-15T03:59:42;100920.19;;;10.17
18161;BMP280;9205;52.032;4.314;2023-04-15T04:02:09;100924.34;;;10.20
18161;BMP280;9205;52.032;4.314;2023-04-15T04:04:37;100918.53;;;10.13
18161;BMP280;9205;52.032;4.314;2023-04-15T04:07:04;100923.66;;;10.11
18161;BMP280;9205;52.032;4.314;2023-04-15T04:09:31;100928.69;;;10.13
18161;BMP280;9205;52.032;4.314;2023-04-15T04:11:58;100939.78;;;10.10
18161;BMP280;9205;52.032;4.314;2023-04-15T04:14:26;100936.34;;;10.11
18161;BMP280;9205;52.032;4.314;2023-04-15T04:16:55;100934.72;;;10.10
18161;BMP280;9205;52.032;4.314;2023-04-15T04:19:23;100944.88;;;10.10
18161;BMP280;9205;52.032;4.314;2023-04-15T04:21:51;100945.69;;;10.10
18161;BMP280;9205;52.032;4.314;2023-04-15T04:24:18;100948.34;;;10.03
18161;BMP280;9205;52.032;4.314;2023-04-15T04:26:45;100953.50;;;10.00
18161;BMP280;9205;52.032;4.314;2023-04-15T04:29:12;100952.63;;;10.01
18161;BMP280;9205;52.032;4.314;2023-04-15T04:31:39;100950.88;;;10.03
18161;BMP280;9205;52.032;4.314;2023-04-15T04:34:08;100954.25;;;10.05
18161;BMP280;9205;52.032;4.314;2023-04-15T04:36:35;100962.69;;;10.07
18161;BMP280;9205;52.032;4.314;2023-04-15T04:39:03;100973.81;;;10.00
18161;BMP280;9205;52.032;4.314;2023-04-15T04:41:30;100972.13;;;9.99
18161;BMP280;9205;52.032;4.314;2023-04-15T04:43:58;100981.44;;;9.98
18161;BMP280;9205;52.032;4.314;2023-04-15T04:46:25;100978.88;;;10.00
18161;BMP280;9205;52.032;4.314;2023-04-15T04:48:52;100986.63;;;9.89
18161;BMP280;9205;52.032;4.314;2023-04-15T04:51:21;100996.72;;;9.92
18161;BMP280;9205;52.032;4.314;2023-04-15T04:53:48;100996.72;;;9.92
18161;BMP280;9205;52.032;4.314;2023-04-15T04:56:15;101009.44;;;9.91
18161;BMP280;9205;52.032;4.314;2023-04-15T04:58:42;101010.34;;;9.87
18161;BMP280;9205;52.032;4.314;2023-04-15T05:01:10;101007.91;;;9.82
18161;BMP280;9205;52.032;4.314;2023-04-15T05:03:37;101013.84;;;9.80
18161;BMP280;9205;52.032;4.314;2023-04-15T05:06:05;101020.63;;;9.79
18161;BMP280;9205;52.032;4.314;2023-04-15T05:08:34;101019.78;;;9.79
18161;BMP280;9205;52.032;4.314;2023-04-15T05:11:02;101024.84;;;9.80
18161;BMP280;9205;52.032;4.314;2023-04-15T05:13:30;101035.03;;;9.79
18161;BMP280;9205;52.032;4.314;2023-04-15T05:15:57;101025.66;;;9.81
18161;BMP280;9205;52.032;4.314;2023-04-15T05:18:24;101048.47;;;9.84
18161;BMP280;9205;52.032;4.314;2023-04-15T05:20:51;101054.31;;;9.87
18161;BMP280;9205;52.032;4.314;2023-04-15T05:23:19;101049.22;;;9.89
18161;BMP280;9205;52.032;4.314;2023-04-15T05:25:47;101054.25;;;9.92
18161;BMP280;9205;52.032;4.314;2023-04-15T05:28:15;101055.06;;;9.95
18161;BMP280;9205;52.032;4.314;2023-04-15T05:30:42;101062.63;;;9.97
18161;BMP280;9205;52.032;4.314;2023-04-15T05:33:10;101071.97;;;9.98
18161;BMP280;9205;52.032;4.314;2023-04-15T05:35:37;101069.34;;;10.02
18161;BMP280;9205;52.032;4.314;2023-04-15T05:38:04;101075.25;;;10.03
18161;BMP280;9205;52.032;4.314;2023-04-15T05:40:31;101082.88;;;10.03
18161;BMP280;9205;52.032;4.314;2023-04-15T05:43:00;101092.16;;;10.04
18161;BMP280;9205;52.032;4.314;2023-04-15T05:45:27;101099.03;;;9.99
18161;BMP280;9205;52.032;4.314;2023-04-15T05:47:54;101098.97;;;10.03
18161;BMP280;9205;52.032;4.314;2023-04-15T05:50:22;101104.88;;;10.02
18161;BMP280;9205;52.032;4.314;2023-04-15T05:52:49;101113.28;;;10.06
18161;BMP280;9205;52.032;4.314;2023-04-15T05:55:16;101119.94;;;10.13
18161;BMP280;9205;52.032;4.314;2023-04-15T05:57:43;101134.22;;;10.19
18161;BMP280;9205;52.032;4.314;2023-04-15T06:00:13;101136.78;;;10.19
18161;BMP280;9205;52.032;4.314;2023-04-15T06:02:41;101132.44;;;10.26
18161;BMP280;9205;52.032;4.314;2023-04-15T06:05:08;101142.63;;;10.24
18161;BMP280;9205;52.032;4.314;2023-04-15T06:07:36;101139.13;;;10.31
18161;BMP280;9205;52.032;4.314;2023-04-15T06:10:05;101151.91;;;10.27
18161;BMP280;9205;52.032;4.314;2023-04-15T06:12:33;101156.06;;;10.31
18161;BMP280;9205;52.032;4.314;2023-04-15T06:15:00;101156.81;;;10.37
18161;BMP280;9205;52.032;4.314;2023-04-15T06:17:30;101160.25;;;10.35
18161;BMP280;9205;52.032;4.314;2023-04-15T06:19:57;101166.88;;;10.43
18161;BMP280;9205;52.032;4.314;2023-04-15T06:22:24;101177.09;;;10.40
18161;BMP280;9205;52.032;4.314;2023-04-15T06:24:51;101190.63;;;10.41
18161;BMP280;9205;52.032;4.314;2023-04-15T06:27:19;101189.78;;;10.40
18161;BMP280;9205;52.032;4.314;2023-04-15T06:29:46;101195.69;;;10.41
18161;BMP280;9205;52.032;4.314;2023-04-15T06:32:13;101199.78;;;10.51
18161;BMP280;9205;52.032;4.314;2023-04-15T06:34:44;101211.56;;;10.55
18161;BMP280;9205;52.032;4.314;2023-04-15T06:37:12;101200.50;;;10.57
18161;BMP280;9205;52.032;4.314;2023-04-15T06:39:41;101204.56;;;10.70
18161;BMP280;9205;52.032;4.314;2023-04-15T06:42:10;101206.13;;;10.77
18161;BMP280;9205;52.032;4.314;2023-04-15T06:44:37;101208.59;;;10.80
18161;BMP280;9205;52.032;4.314;2023-04-15T06:47:04;101217.88;;;10.84
18161;BMP280;9205;52.032;4.314;2023-04-15T06:49:32;101225.31;;;10.94
18161;BMP280;9205;52.032;4.314;2023-04-15T06:52:01;101230.22;;;11.05
18161;BMP280;9205;52.032;4.314;2023-04-15T06:54:29;101222.38;;;11.17
18161;BMP280;9205;52.032;4.314;2023-04-15T06:56:57;101218.88;;;11.22
18161;BMP280;9205;52.032;4.314;2023-04-15T06:59:24;101229.66;;;11.36
18161;BMP280;9205;52.032;4.314;2023-04-15T07:01:52;101224.38;;;11.45
18161;BMP280;9205;52.032;4.314;2023-04-15T07:04:19;101229.50;;;11.44
18161;BMP280;9205;52.032;4.314;2023-04-15T07:06:46;101237.88;;;11.52
18161;BMP280;9205;52.032;4.314;2023-04-15T07:09:15;101236.88;;;11.60
18161;BMP280;9205;52.032;4.314;2023-04-15T07:11:43;101234.22;;;11.65
18161;BMP280;9205;52.032;4.314;2023-04-15T07:14:10;101235.75;;;11.73
18161;BMP280;9205;52.032;4.314;2023-04-15T07:16:37;101242.31;;;11.84
18161;BMP280;9205;52.032;4.314;2023-04-15T07:19:04;101247.31;;;11.87
18161;BMP280;9205;52.032;4.314;2023-04-15T07:21:32;101251.63;;;11.84
18161;BMP280;9205;52.032;4.314;2023-04-15T07:23:59;101257.63;;;11.81
18161;BMP280;9205;52.032;4.314;2023-04-15T07:26:28;101271.13;;;11.85
18161;BMP280;9205;52.032;4.314;2023-04-15T07:28:55;101263.25;;;11.97
18161;BMP280;9205;52.032;4.314;2023-04-15T07:31:22;101275.81;;;12.04
18161;BMP280;9205;52.032;4.314;2023-04-15T07:33:49;101280.72;;;12.13
18161;BMP280;9205;52.032;4.314;2023-04-15T07:36:16;101282.22;;;12.23
18161;BMP280;9205;52.032;4.314;2023-04-15T07:38:44;101288.91;;;12.27
18161;BMP280;9205;52.032;4.314;2023-04-15T07:41:11;101284.59;;;12.32
18161;BMP280;9205;52.032;4.314;2023-04-15T07:43:40;101301.38;;;12.41
18161;BMP280;9205;52.032;4.314;2023-04-15T07:46:07;101300.38;;;12.48
18161;BMP280;9205;52.032;4.314;2023-04-15T07:48:34;101303.69;;;12.51
18161;BMP280;9205;52.032;4.314;2023-04-15T07:51:02;101299.31;;;12.57
18161;BMP280;9205;52.032;4.314;2023-04-15T07:53:29;101307.56;;;12.67
18161;BMP280;9205;52.032;4.314;2023-04-15T07:55:57;101314.41;;;12.65
18161;BMP280;9205;52.032;4.314;2023-04-15T07:58:25;101319.44;;;12.68
18161;BMP280;9205;52.032;4.314;2023-04-15T08:00:53;101317.72;;;12.70
18161;BMP280;9205;52.032;4.314;2023-04-15T08:03:21;101326.94;;;12.75
18161;BMP280;9205;52.032;4.314;2023-04-15T08:05:48;101333.59;;;12.81
18161;BMP280;9205;52.032;4.314;2023-04-15T08:08:18;101337.59;;;12.94
18161;BMP280;9205;52.032;4.314;2023-04-15T08:10:49;101337.38;;;13.03
18161;BMP280;9205;52.032;4.314;2023-04-15T08:13:16;101347.53;;;13.04
18161;BMP280;9205;52.032;4.314;2023-04-15T08:15:44;101336.47;;;13.05
18161;BMP280;9205;52.032;4.314;2023-04-15T08:18:12;101346.41;;;13.16
18161;BMP280;9205;52.032;4.314;2023-04-15T08:20:40;101356.41;;;13.25
18161;BMP280;9205;52.032;4.314;2023-04-15T08:23:07;101356.66;;;13.14
18161;BMP280;9205;52.032;4.314;2023-04-15T08:25:34;101361.66;;;13.17
18161;BMP280;9205;52.032;4.314;2023-04-15T08:28:03;101364.06;;;13.25
18161;BMP280;9205;52.032;4.314;2023-04-15T08:30:32;101366.56;;;13.26
18161;BMP280;9205;52.032;4.314;2023-04-15T08:33:00;101368.94;;;13.33
18161;BMP280;9205;52.032;4.314;2023-04-15T08:35:28;101367.09;;;13.38
18161;BMP280;9205;52.032;4.314;2023-04-15T08:37:56;101371.13;;;13.48
18161;BMP280;9205;52.032;4.314;2023-04-15T08:40:41;101377.38;;;13.69
18161;BMP280;9205;52.032;4.314;2023-04-15T08:43:11;101374.88;;;13.67
18161;BMP280;9205;52.032;4.314;2023-04-15T08:45:39;101380.50;;;13.80
18161;BMP280;9205;52.032;4.314;2023-04-15T08:48:08;101387.06;;;13.88
18161;BMP280;9205;52.032;4.314;2023-04-15T08:50:43;101399.13;;;13.83
18161;BMP280;9205;52.032;4.314;2023-04-15T08:53:11;101391.22;;;13.92
18161;BMP280;9205;52.032;4.314;2023-04-15T08:55:42;101406.41;;;13.98
18161;BMP280;9205;52.032;4.314;2023-04-15T08:58:11;101399.06;;;13.86
18161;BMP280;9205;52.032;4.314;2023-04-15T09:00:39;101421.13;;;13.89
18161;BMP280;9205;52.032;4.314;2023-04-15T09:03:08;101423.56;;;13.93
18161;BMP280;9205;52.032;4.314;2023-04-15T09:05:36;101414.19;;;13.94
18161;BMP280;9205;52.032;4.314;2023-04-15T09:08:05;101430.75;;;14.11
18161;BMP280;9205;52.032;4.314;2023-04-15T09:10:33;101426.47;;;14.13
18161;BMP280;9205;52.032;4.314;2023-04-15T09:13:01;101438.28;;;14.17
18161;BMP280;9205;52.032;4.314;2023-04-15T09:15:31;101434.84;;;14.18
18161;BMP280;9205;52.032;4.314;2023-04-15T09:17:59;101438.00;;;14.27
18161;BMP280;9205;52.032;4.314;2023-04-15T09:20:26;101438.03;;;14.26
18161;BMP280;9205;52.032;4.314;2023-04-15T09:22:53;101443.31;;;14.20
18161;BMP280;9205;52.032;4.314;2023-04-15T09:25:29;101448.50;;;14.17
18161;BMP280;9205;52.032;4.314;2023-04-15T09:27:58;101450.31;;;14.12
18161;BMP280;9205;52.032;4.314;2023-04-15T09:30:27;101453.00;;;14.06
18161;BMP280;9205;52.032;4.314;2023-04-15T09:32:57;101462.22;;;14.14
18161;BMP280;9205;52.032;4.314;2023-04-15T09:35:26;101463.59;;;14.26
18161;BMP280;9205;52.032;4.314;2023-04-15T09:38:02;101468.31;;;14.41
18161;BMP280;9205;52.032;4.314;2023-04-15T09:40:35;101476.59;;;14.49
18161;BMP280;9205;52.032;4.314;2023-04-15T09:43:04;101477.34;;;14.52
18161;BMP280;9205;52.032;4.314;2023-04-15T09:45:33;101478.25;;;14.50
18161;BMP280;9205;52.032;4.314;2023-04-15T09:48:17;101474.50;;;14.63
18161;BMP280;9205;52.032;4.314;2023-04-15T09:50:46;101476.81;;;14.70
18161;BMP280;9205;52.032;4.314;2023-04-15T09:53:19;101479.94;;;14.81
18161;BMP280;9205;52.032;4.314;2023-04-15T09:55:51;101491.09;;;14.79
18161;BMP280;9205;52.032;4.314;2023-04-15T09:58:22;101499.72;;;14.75
18161;BMP280;9205;52.032;4.314;2023-04-15T10:00:51;101494.41;;;14.81
18161;BMP280;9205;52.032;4.314;2023-04-15T10:03:21;101495.09;;;14.87
18161;BMP280;9205;52.032;4.314;2023-04-15T10:05:50;101497.47;;;14.93
18161;BMP280;9205;52.032;4.314;2023-04-15T10:08:22;101499.03;;;14.98
18161;BMP280;9205;52.032;4.314;2023-04-15T10:10:52;101498.06;;;15.02
18161;BMP280;9205;52.032;4.314;2023-04-15T10:13:21;101499.38;;;15.15
18161;BMP280;9205;52.032;4.314;2023-04-15T10:15:55;101506.53;;;15.33
18161;BMP280;9205;52.032;4.314;2023-04-15T10:18:27;101504.63;;;15.40
18161;BMP280;9205;52.032;4.314;2023-04-15T10:20:54;101506.44;;;15.36
18161;BMP280;9205;52.032;4.314;2023-04-15T10:23:22;101507.19;;;15.40
18161;BMP280;9205;52.032;4.314;2023-04-15T10:25:53;101499.16;;;15.50
18161;BMP280;9205;52.032;4.314;2023-04-15T10:28:21;101509.84;;;15.64
18161;BMP280;9205;52.032;4.314;2023-04-15T10:30:49;101516.16;;;15.78
18161;BMP280;9205;52.032;4.314;2023-04-15T10:33:21;101508.91;;;15.65
18161;BMP280;9205;52.032;4.314;2023-04-15T10:35:50;101524.28;;;15.65
18161;BMP280;9205;52.032;4.314;2023-04-15T10:38:39;101514.56;;;15.76
18161;BMP280;9205;52.032;4.314;2023-04-15T10:41:17;101522.63;;;15.90
18161;BMP280;9205;52.032;4.314;2023-04-15T10:43:48;101532.44;;;16.03
18161;BMP280;9205;52.032;4.314;2023-04-15T10:46:21;101518.81;;;16.03
18161;BMP280;9205;52.032;4.314;2023-04-15T10:48:50;101514.50;;;16.28
18161;BMP280;9205;52.032;4.314;2023-04-15T10:51:28;101527.44;;;16.25
18161;BMP280;9205;52.032;4.314;2023-04-15T10:53:57;101530.41;;;16.39
18161;BMP280;9205;52.032;4.314;2023-04-15T10:56:28;101530.53;;;16.58
18161;BMP280;9205;52.032;4.314;2023-04-15T10:58:58;101521.06;;;17.06
18161;BMP280;9205;52.032;4.314;2023-04-15T11:01:54;101527.91;;;17.51
18161;BMP280;9205;52.032;4.314;2023-04-15T11:04:50;101536.75;;;17.66
18161;BMP280;9205;52.032;4.314;2023-04-15T11:07:34;101527.19;;;18.50
18161;BMP280;9205;52.032;4.314;2023-04-15T11:10:02;101524.72;;;19.24
18161;BMP280;9205;52.032;4.314;2023-04-15T11:12:37;101529.13;;;19.57
18161;BMP280;9205;52.032;4.314;2023-04-15T11:15:27;101542.78;;;20.28
18161;BMP280;9205;52.032;4.314;2023-04-15T11:17:56;101537.59;;;20.62
18161;BMP280;9205;52.032;4.314;2023-04-15T11:20:24;101543.78;;;20.75
18161;BMP280;9205;52.032;4.314;2023-04-15T11:22:53;101547.56;;;21.02
18161;BMP280;9205;52.032;4.314;2023-04-15T11:25:24;101550.03;;;20.71
18161;BMP280;9205;52.032;4.314;2023-04-15T11:27:54;101566.75;;;20.64
18161;BMP280;9205;52.032;4.314;2023-04-15T11:30:24;101564.19;;;20.47
18161;BMP280;9205;52.032;4.314;2023-04-15T11:32:54;101568.59;;;20.45
18161;BMP280;9205;52.032;4.314;2023-04-15T11:35:21;101574.06;;;20.22
18161;BMP280;9205;52.032;4.314;2023-04-15T11:37:49;101582.09;;;19.99
18161;BMP280;9205;52.032;4.314;2023-04-15T11:40:22;101583.34;;;19.91
18161;BMP280;9205;52.032;4.314;2023-04-15T11:43:06;101588.00;;;19.66
18161;BMP280;9205;52.032;4.314;2023-04-15T11:45:33;101586.63;;;19.41
18161;BMP280;9205;52.032;4.314;2023-04-15T11:48:06;101601.75;;;18.91
18161;BMP280;9205;52.032;4.314;2023-04-15T11:50:34;101604.06;;;18.16
18161;BMP280;9205;52.032;4.314;2023-04-15T11:53:04;101599.56;;;17.80
18161;BMP280;9205;52.032;4.314;2023-04-15T11:55:41;101612.19;;;17.65
18161;BMP280;9205;52.032;4.314;2023-04-15T11:58:12;101619.50;;;17.52
18161;BMP280;9205;52.032;4.314;2023-04-15T12:00:41;101613.53;;;17.29
18161;BMP280;9205;52.032;4.314;2023-04-15T12:03:24;101628.81;;;17.09
18161;BMP280;9205;52.032;4.314;2023-04-15T12:06:14;101635.81;;;17.04
18161;BMP280;9205;52.032;4.314;2023-04-15T12:08:57;101640.34;;;17.21
18161;BMP280;9205;52.032;4.314;2023-04-15T12:11:36;101630.69;;;17.28
18161;BMP280;9205;52.032;4.314;2023-04-15T12:14:19;101639.03;;;17.33
18161;BMP280;9205;52.032;4.314;2023-04-15T12:16:49;101636.44;;;17.11
18161;BMP280;9205;52.032;4.314;2023-04-15T12:19:26;101644.06;;;17.12
18161;BMP280;9205;52.032;4.314;2023-04-15T12:21:58;101657.28;;;17.26
18161;BMP280;9205;52.032;4.314;2023-04-15T12:24:26;101649.53;;;17.27
18161;BMP280;9205;52.032;4.314;2023-04-15T12:26:56;101653.28;;;17.18
18161;BMP280;9205;52.032;4.314;2023-04-15T12:29:27;101672.88;;;17.20
18161;BMP280;9205;52.032;4.314;2023-04-15T12:31:57;101668.09;;;17.11
18161;BMP280;9205;52.032;4.314;2023-04-15T12:34:29;101672.59;;;17.05
18161;BMP280;9205;52.032;4.314;2023-04-15T12:36:59;101672.34;;;16.88
18161;BMP280;9205;52.032;4.314;2023-04-15T12:39:29;101679.38;;;16.81
18161;BMP280;9205;52.032;4.314;2023-04-15T12:41:57;101680.53;;;16.97
18161;BMP280;9205;52.032;4.314;2023-04-15T12:44:27;101688.00;;;17.05
18161;BMP280;9205;52.032;4.314;2023-04-15T12:46:55;101689.09;;;16.98
18161;BMP280;9205;52.032;4.314;2023-04-15T12:49:23;101695.53;;;17.09
18161;BMP280;9205;52.032;4.314;2023-04-15T12:51:53;101693.63;;;17.14
18161;BMP280;9205;52.032;4.314;2023-04-15T12:54:21;101700.38;;;17.18
18161;BMP280;9205;52.032;4.314;2023-04-15T12:56:50;101701.25;;;17.17
18161;BMP280;9205;52.032;4.314;2023-04-15T12:59:17;101697.00;;;17.16
18161;BMP280;9205;52.032;4.314;2023-04-15T13:01:47;101706.69;;;17.34
18161;BMP280;9205;52.032;4.314;2023-04-15T13:04:15;101704.78;;;17.39
18161;BMP280;9205;52.032;4.314;2023-04-15T13:06:43;101713.25;;;17.41
18161;BMP280;9205;52.032;4.314;2023-04-15T13:09:10;101722.28;;;17.28
18161;BMP280;9205;52.032;4.314;2023-04-15T13:11:37;101717.22;;;17.01
18161;BMP280;9205;52.032;4.314;2023-04-15T13:14:06;101722.19;;;17.05
18161;BMP280;9205;52.032;4.314;2023-04-15T13:16:34;101732.63;;;17.25
18161;BMP280;9205;52.032;4.314;2023-04-15T13:19:03;101729.56;;;17.40
18161;BMP280;9205;52.032;4.314;2023-04-15T13:21:31;101734.38;;;17.49
18161;BMP280;9205;52.032;4.314;2023-04-15T13:24:00;101744.81;;;17.44
18161;BMP280;9205;52.032;4.314;2023-04-15T13:26:27;101744.75;;;17.46
18161;BMP280;9205;52.032;4.314;2023-04-15T13:28:56;101748.13;;;17.48
18161;BMP280;9205;52.032;4.314;2023-04-15T13:31:23;101741.91;;;17.30
18161;BMP280;9205;52.032;4.314;2023-04-15T13:33:50;101742.69;;;17.07
18161;BMP280;9205;52.032;4.314;2023-04-15T13:36:19;101749.91;;;16.96
18161;BMP280;9205;52.032;4.314;2023-04-15T13:38:46;101748.34;;;17.16
18161;BMP280;9205;52.032;4.314;2023-04-15T13:41:13;101750.22;;;17.37
18161;BMP280;9205;52.032;4.314;2023-04-15T13:43:41;101765.78;;;17.57
18161;BMP280;9205;52.032;4.314;2023-04-15T13:46:08;101750.78;;;17.45
18161;BMP280;9205;52.032;4.314;2023-04-15T13:48:36;101761.28;;;17.39
18161;BMP280;9205;52.032;4.314;2023-04-15T13:51:03;101755.25;;;17.40
18161;BMP280;9205;52.032;4.314;2023-04-15T13:53:32;101756.72;;;17.70
18161;BMP280;9205;52.032;4.314;2023-04-15T13:56:01;101766.31;;;17.42
18161;BMP280;9205;52.032;4.314;2023-04-15T13:58:28;101768.09;;;17.40
18161;BMP280;9205;52.032;4.314;2023-04-15T14:00:55;101773.53;;;17.31
18161;BMP280;9205;52.032;4.314;2023-04-15T14:03:22;101778.22;;;17.44
18161;BMP280;9205;52.032;4.314;2023-04-15T14:05:50;101785.75;;;17.49
18161;BMP280;9205;52.032;4.314;2023-04-15T14:08:21;101781.34;;;17.28
18161;BMP280;9205;52.032;4.314;2023-04-15T14:10:49;101780.94;;;17.40
18161;BMP280;9205;52.032;4.314;2023-04-15T14:13:17;101787.06;;;17.36
18161;BMP280;9205;52.032;4.314;2023-04-15T14:15:45;101792.19;;;17.36
18161;BMP280;9205;52.032;4.314;2023-04-15T14:18:12;101798.22;;;17.35
18161;BMP280;9205;52.032;4.314;2023-04-15T14:20:39;101796.75;;;17.02